sensor_id;sensor_type;location;lat;lon;timestamp;temperature;humidity
55648;DHT22;45266;48.756;9.246;2023-04-03T00:00:23;4.30;99.90
55648;DHT22;45266;48.756;9.246;2023-04-03T00:01:25;4.30;99.90
55648;DHT22;45266;48.756;9.246;2023-04-03T00:02:27;4.30;99.90
55648;DHT22;45266;48.756;9.246;2023-04-03T00:03:29;4.20;99.90
55648;DHT22;45266;48.756;9.246;2023-04-03T00:04:31;4.20;99.90
55648;DHT22;45266;48.756;9.246;2023-04-03T00:05:33;4.20;99.90
55648;DHT22;45266;48.756;9.246;2023-04-03T00:06:34;4.20;99.90
55648;DHT22;45266;48.756;9.246;2023-04-03T00:07:36;4.20;99.90
55648;DHT22;45266;48.756;9.246;2023-04-03T00:08:39;4.20;99.90
55648;DHT22;45266;48.756;9.246;2023-04-03T00:09:41;4.10;99.90
55648;DHT22;45266;48.756;9.246;2023-04-03T00:10:43;4.10;99.90
55648;DHT22;45266;48.756;9.246;2023-04-03T00:11:45;4.20;99.90
55648;DHT22;45266;48.756;9.246;2023-04-03T00:12:47;4.10;99.90
55648;DHT22;45266;48.756;9.246;2023-04-03T00:13:49;4.10;99.90
55648;DHT22;45266;48.756;9.246;2023-04-03T00:14:51;4.10;99.90
55648;DHT22;45266;48.756;9.246;2023-04-03T00:15:53;4.10;99.90
55648;DHT22;45266;48.756;9.246;2023-04-03T00:16:55;4.10;99.90
55648;DHT22;45266;48.756;9.246;2023-04-03T00:17:57;4.10;99.90
55648;DHT22;45266;48.756;9.246;2023-04-03T00:18:59;4.10;99.90
55648;DHT22;45266;48.756;9.246;2023-04-03T00:20:02;4.10;99.90
55648;DHT22;45266;48.756;9.246;2023-04-03T00:21:04;4.00;99.90
55648;DHT22;45266;48.756;9.246;2023-04-03T00:22:06;4.00;99.90
55648;DHT22;45266;48.756;9.246;2023-04-03T00:23:08;4.00;99.90
55648;DHT22;45266;48.756;9.246;2023-04-03T00:24:10;4.00;99.90
55648;DHT22;45266;48.756;9.246;2023-04-03T00:25:12;4.00;99.90
55648;DHT22;45266;48.756;9.246;2023-04-03T00:26:13;4.00;99.90
55648;DHT22;45266;48.756;9.246;2023-04-03T00:27:15;4.00;99.90
55648;DHT22;45266;48.756;9.246;2023-04-03T00:28:17;4.00;99.90
55648;DHT22;45266;48.756;9.246;2023-04-03T00:29:19;4.00;99.90
55648;DHT22;45266;48.756;9.246;2023-04-03T00:30:22;3.90;99.90
55648;DHT22;45266;48.756;9.246;2023-04-03T00:31:23;3.90;99.90
55648;DHT22;45266;48.756;9.246;2023-04-03T00:32:25;3.90;99.90
55648;DHT22;45266;48.756;9.246;2023-04-03T00:33:27;3.90;99.90
55648;DHT22;45266;48.756;9.246;2023-04-03T00:34:29;3.90;99.90
55648;DHT22;45266;48.756;9.246;2023-04-03T00:35:32;3.90;99.90
55648;DHT22;45266;48.756;9.246;2023-04-03T00:36:35;3.80;99.90
55648;DHT22;45266;48.756;9.246;2023-04-03T00:37:37;3.90;99.90
55648;DHT22;45266;48.756;9.246;2023-04-03T00:38:39;3.80;99.90
55648;DHT22;45266;48.756;9.246;2023-04-03T00:39:41;3.90;99.90
55648;DHT22;45266;48.756;9.246;2023-04-03T00:40:46;3.90;99.90
55648;DHT22;45266;48.756;9.246;2023-04-03T00:41:48;3.90;99.90
55648;DHT22;45266;48.756;9.246;2023-04-03T00:42:56;3.90;99.90
55648;DHT22;45266;48.756;9.246;2023-04-03T00:43:58;3.90;99.90
55648;DHT22;45266;48.756;9.246;2023-04-03T00:46:02;4.00;99.90
55648;DHT22;45266;48.756;9.246;2023-04-03T00:47:07;3.90;99.90
55648;DHT22;45266;48.756;9.246;2023-04-03T00:48:19;3.90;99.90
55648;DHT22;45266;48.756;9.246;2023-04-03T00:49:22;3.90;99.90
55648;DHT22;45266;48.756;9.246;2023-04-03T00:50:24;4.00;99.90
55648;DHT22;45266;48.756;9.246;2023-04-03T00:51:26;3.90;99.90
55648;DHT22;45266;48.756;9.246;2023-04-03T00:52:29;3.90;99.90
55648;DHT22;45266;48.756;9.246;2023-04-03T00:53:38;3.90;99.90
55648;DHT22;45266;48.756;9.246;2023-04-03T00:54:43;3.90;99.90
55648;DHT22;45266;48.756;9.246;2023-04-03T00:55:47;3.80;99.90
55648;DHT22;45266;48.756;9.246;2023-04-03T00:56:51;3.80;99.90
55648;DHT22;45266;48.756;9.246;2023-04-03T00:57:55;3.80;99.90
55648;DHT22;45266;48.756;9.246;2023-04-03T00:59:11;3.90;99.90
55648;DHT22;45266;48.756;9.246;2023-04-03T01:00:16;3.80;99.90
55648;DHT22;45266;48.756;9.246;2023-04-03T01:01:22;3.80;99.90
55648;DHT22;45266;48.756;9.246;2023-04-03T01:02:24;3.80;99.90
55648;DHT22;45266;48.756;9.246;2023-04-03T01:03:27;3.90;99.90
55648;DHT22;45266;48.756;9.246;2023-04-03T01:05:33;3.80;99.90
55648;DHT22;45266;48.756;9.246;2023-04-03T01:06:36;3.80;99.90
55648;DHT22;45266;48.756;9.246;2023-04-03T01:07:39;3.80;99.90
55648;DHT22;45266;48.756;9.246;2023-04-03T01:08:41;3.80;99.90
55648;DHT22;45266;48.756;9.246;2023-04-03T01:09:44;3.80;99.90
55648;DHT22;45266;48.756;9.246;2023-04-03T01:10:46;3.80;99.90
55648;DHT22;45266;48.756;9.246;2023-04-03T01:11:48;3.80;99.90
55648;DHT22;45266;48.756;9.246;2023-04-03T01:12:50;3.80;99.90
55648;DHT22;45266;48.756;9.246;2023-04-03T01:13:53;3.70;99.90
55648;DHT22;45266;48.756;9.246;2023-04-03T01:14:58;3.70;99.90
55648;DHT22;45266;48.756;9.246;2023-04-03T01:16:02;3.70;99.90
55648;DHT22;45266;48.756;9.246;2023-04-03T01:18:32;3.60;99.90
55648;DHT22;45266;48.756;9.246;2023-04-03T01:19:38;3.60;99.90
55648;DHT22;45266;48.756;9.246;2023-04-03T01:21:30;3.60;99.90
55648;DHT22;45266;48.756;9.246;2023-04-03T01:22:35;3.60;99.90
55648;DHT22;45266;48.756;9.246;2023-04-03T01:25:04;3.60;99.90
55648;DHT22;45266;48.756;9.246;2023-04-03T01:26:07;3.60;99.90
55648;DHT22;45266;48.756;9.246;2023-04-03T01:27:10;3.60;99.90
55648;DHT22;45266;48.756;9.246;2023-04-03T01:28:34;3.60;99.90
55648;DHT22;45266;48.756;9.246;2023-04-03T01:29:37;3.60;99.90
55648;DHT22;45266;48.756;9.246;2023-04-03T01:32:12;3.60;99.90
55648;DHT22;45266;48.756;9.246;2023-04-03T01:33:14;3.60;99.90
55648;DHT22;45266;48.756;9.246;2023-04-03T01:34:16;3.70;99.90
55648;DHT22;45266;48.756;9.246;2023-04-03T01:35:18;3.70;99.90
55648;DHT22;45266;48.756;9.246;2023-04-03T01:36:25;3.70;99.90
55648;DHT22;45266;48.756;9.246;2023-04-03T01:37:28;3.70;99.90
55648;DHT22;45266;48.756;9.246;2023-04-03T01:38:30;3.70;99.90
55648;DHT22;45266;48.756;9.246;2023-04-03T01:39:32;3.70;99.90
55648;DHT22;45266;48.756;9.246;2023-04-03T01:40:34;3.70;99.90
55648;DHT22;45266;48.756;9.246;2023-04-03T01:41:36;3.70;99.90
55648;DHT22;45266;48.756;9.246;2023-04-03T01:42:38;3.70;99.90
55648;DHT22;45266;48.756;9.246;2023-04-03T01:43:40;3.70;99.90
55648;DHT22;45266;48.756;9.246;2023-04-03T01:44:41;3.70;99.90
55648;DHT22;45266;48.756;9.246;2023-04-03T01:45:43;3.70;99.90
55648;DHT22;45266;48.756;9.246;2023-04-03T01:46:45;3.70;99.90
55648;DHT22;45266;48.756;9.246;2023-04-03T01:47:47;3.70;99.90
55648;DHT22;45266;48.756;9.246;2023-04-03T01:48:49;3.70;99.90
55648;DHT22;45266;48.756;9.246;2023-04-03T01:49:50;3.70;99.90
55648;DHT22;45266;48.756;9.246;2023-04-03T01:50:53;3.60;99.90
55648;DHT22;45266;48.756;9.246;2023-04-03T01:51:54;3.70;99.90
55648;DHT22;45266;48.756;9.246;2023-04-03T01:52:57;3.70;99.90
55648;DHT22;45266;48.756;9.246;2023-04-03T01:53:59;3.70;99.90
55648;DHT22;45266;48.756;9.246;2023-04-03T01:55:01;3.60;99.90
55648;DHT22;45266;48.756;9.246;2023-04-03T01:56:03;3.60;99.90
55648;DHT22;45266;48.756;9.246;2023-04-03T01:57:05;3.60;99.90
55648;DHT22;45266;48.756;9.246;2023-04-03T01:58:07;3.50;99.90
55648;DHT22;45266;48.756;9.246;2023-04-03T01:59:09;3.50;99.90
55648;DHT22;45266;48.756;9.246;2023-04-03T02:00:11;3.50;99.90
55648;DHT22;45266;48.756;9.246;2023-04-03T02:01:13;3.50;99.90
55648;DHT22;45266;48.756;9.246;2023-04-03T02:02:15;3.50;99.90
55648;DHT22;45266;48.756;9.246;2023-04-03T02:03:17;3.50;99.90
55648;DHT22;45266;48.756;9.246;2023-04-03T02:04:20;3.50;99.90
55648;DHT22;45266;48.756;9.246;2023-04-03T02:05:22;3.50;99.90
55648;DHT22;45266;48.756;9.246;2023-04-03T02:06:23;3.50;99.90
55648;DHT22;45266;48.756;9.246;2023-04-03T02:07:25;3.50;99.90
55648;DHT22;45266;48.756;9.246;2023-04-03T02:08:27;3.50;99.90
55648;DHT22;45266;48.756;9.246;2023-04-03T02:09:29;3.50;99.90
55648;DHT22;45266;48.756;9.246;2023-04-03T02:10:31;3.50;99.90
55648;DHT22;45266;48.756;9.246;2023-04-03T02:11:32;3.50;99.90
55648;DHT22;45266;48.756;9.246;2023-04-03T02:12:34;3.50;99.90
55648;DHT22;45266;48.756;9.246;2023-04-03T02:13:36;3.40;99.90
55648;DHT22;45266;48.756;9.246;2023-04-03T02:14:38;3.40;99.90
55648;DHT22;45266;48.756;9.246;2023-04-03T02:15:39;3.50;99.90
55648;DHT22;45266;48.756;9.246;2023-04-03T02:16:41;3.50;99.90
55648;DHT22;45266;48.756;9.246;2023-04-03T02:17:44;3.50;99.90
55648;DHT22;45266;48.756;9.246;2023-04-03T02:18:45;3.50;99.90
55648;DHT22;45266;48.756;9.246;2023-04-03T02:19:47;3.40;99.90
55648;DHT22;45266;48.756;9.246;2023-04-03T02:20:49;3.40;99.90
55648;DHT22;45266;48.756;9.246;2023-04-03T02:21:51;3.40;99.90
55648;DHT22;45266;48.756;9.246;2023-04-03T02:22:52;3.40;99.90
55648;DHT22;45266;48.756;9.246;2023-04-03T02:23:54;3.40;99.90
55648;DHT22;45266;48.756;9.246;2023-04-03T02:24:56;3.40;99.90
55648;DHT22;45266;48.756;9.246;2023-04-03T02:26:12;3.50;99.90
55648;DHT22;45266;48.756;9.246;2023-04-03T02:27:14;3.40;99.90
55648;DHT22;45266;48.756;9.246;2023-04-03T02:28:16;3.40;99.90
55648;DHT22;45266;48.756;9.246;2023-04-03T02:29:18;3.40;99.90
55648;DHT22;45266;48.756;9.246;2023-04-03T02:30:19;3.40;99.90
55648;DHT22;45266;48.756;9.246;2023-04-03T02:31:21;3.40;99.90
55648;DHT22;45266;48.756;9.246;2023-04-03T02:32:23;3.40;99.90
55648;DHT22;45266;48.756;9.246;2023-04-03T02:33:25;3.40;99.90
55648;DHT22;45266;48.756;9.246;2023-04-03T02:34:27;3.50;99.90
55648;DHT22;45266;48.756;9.246;2023-04-03T02:35:28;3.40;99.90
55648;DHT22;45266;48.756;9.246;2023-04-03T02:36:30;3.50;99.90
55648;DHT22;45266;48.756;9.246;2023-04-03T02:37:33;3.40;99.90
55648;DHT22;45266;48.756;9.246;2023-04-03T02:38:35;3.40;99.90
55648;DHT22;45266;48.756;9.246;2023-04-03T02:39:38;3.40;99.90
55648;DHT22;45266;48.756;9.246;2023-04-03T02:40:40;3.40;99.90
55648;DHT22;45266;48.756;9.246;2023-04-03T02:41:42;3.40;99.90
55648;DHT22;45266;48.756;9.246;2023-04-03T02:42:44;3.40;99.90
55648;DHT22;45266;48.756;9.246;2023-04-03T02:43:46;3.40;99.90
55648;DHT22;45266;48.756;9.246;2023-04-03T02:44:48;3.40;99.90
55648;DHT22;45266;48.756;9.246;2023-04-03T02:45:50;3.40;99.90
55648;DHT22;45266;48.756;9.246;2023-04-03T02:46:52;3.40;99.90
55648;DHT22;45266;48.756;9.246;2023-04-03T02:47:54;3.40;99.90
55648;DHT22;45266;48.756;9.246;2023-04-03T02:48:55;3.50;99.90
55648;DHT22;45266;48.756;9.246;2023-04-03T02:49:57;3.50;99.90
55648;DHT22;45266;48.756;9.246;2023-04-03T02:50:59;3.50;99.90
55648;DHT22;45266;48.756;9.246;2023-04-03T02:52:01;3.60;99.90
55648;DHT22;45266;48.756;9.246;2023-04-03T02:53:03;3.50;99.90
55648;DHT22;45266;48.756;9.246;2023-04-03T02:54:04;3.50;99.90
55648;DHT22;45266;48.756;9.246;2023-04-03T02:55:07;3.50;99.90
55648;DHT22;45266;48.756;9.246;2023-04-03T02:56:08;3.60;99.90
55648;DHT22;45266;48.756;9.246;2023-04-03T02:57:11;3.60;99.90
55648;DHT22;45266;48.756;9.246;2023-04-03T02:58:12;3.50;99.90
55648;DHT22;45266;48.756;9.246;2023-04-03T02:59:14;3.50;99.90
55648;DHT22;45266;48.756;9.246;2023-04-03T03:00:16;3.50;99.90
55648;DHT22;45266;48.756;9.246;2023-04-03T03:01:18;3.50;99.90
55648;DHT22;45266;48.756;9.246;2023-04-03T03:02:20;3.50;99.90
55648;DHT22;45266;48.756;9.246;2023-04-03T03:03:22;3.50;99.90
55648;DHT22;45266;48.756;9.246;2023-04-03T03:04:24;3.50;99.90
55648;DHT22;45266;48.756;9.246;2023-04-03T03:05:27;3.50;99.90
55648;DHT22;45266;48.756;9.246;2023-04-03T03:06:29;3.50;99.90
55648;DHT22;45266;48.756;9.246;2023-04-03T03:07:31;3.50;99.90
55648;DHT22;45266;48.756;9.246;2023-04-03T03:08:33;3.40;99.90
55648;DHT22;45266;48.756;9.246;2023-04-03T03:09:35;3.50;99.90
55648;DHT22;45266;48.756;9.246;2023-04-03T03:10:37;3.50;99.90
55648;DHT22;45266;48.756;9.246;2023-04-03T03:11:39;3.50;99.90
55648;DHT22;45266;48.756;9.246;2023-04-03T03:12:41;3.50;99.90
55648;DHT22;45266;48.756;9.246;2023-04-03T03:13:43;3.50;99.90
55648;DHT22;45266;48.756;9.246;2023-04-03T03:14:45;3.50;99.90
55648;DHT22;45266;48.756;9.246;2023-04-03T03:15:47;3.50;99.90
55648;DHT22;45266;48.756;9.246;2023-04-03T03:16:48;3.50;99.90
55648;DHT22;45266;48.756;9.246;2023-04-03T03:17:51;3.40;99.90
55648;DHT22;45266;48.756;9.246;2023-04-03T03:18:52;3.50;99.90
55648;DHT22;45266;48.756;9.246;2023-04-03T03:19:57;3.50;99.90
55648;DHT22;45266;48.756;9.246;2023-04-03T03:21:00;3.50;99.90
55648;DHT22;45266;48.756;9.246;2023-04-03T03:22:02;3.50;99.90
55648;DHT22;45266;48.756;9.246;2023-04-03T03:23:04;3.50;99.90
55648;DHT22;45266;48.756;9.246;2023-04-03T03:24:06;3.50;99.90
55648;DHT22;45266;48.756;9.246;2023-04-03T03:25:08;3.50;99.90
55648;DHT22;45266;48.756;9.246;2023-04-03T03:26:10;3.50;99.90
55648;DHT22;45266;48.756;9.246;2023-04-03T03:27:12;3.50;99.90
55648;DHT22;45266;48.756;9.246;2023-04-03T03:28:15;3.50;99.90
55648;DHT22;45266;48.756;9.246;2023-04-03T03:29:16;3.50;99.90
55648;DHT22;45266;48.756;9.246;2023-04-03T03:30:18;3.50;99.90
55648;DHT22;45266;48.756;9.246;2023-04-03T03:31:20;3.50;99.90
55648;DHT22;45266;48.756;9.246;2023-04-03T03:32:22;3.50;99.90
55648;DHT22;45266;48.756;9.246;2023-04-03T03:33:25;3.50;99.90
55648;DHT22;45266;48.756;9.246;2023-04-03T03:34:27;3.60;99.90
55648;DHT22;45266;48.756;9.246;2023-04-03T03:35:29;3.60;99.90
55648;DHT22;45266;48.756;9.246;2023-04-03T03:36:31;3.70;99.90
55648;DHT22;45266;48.756;9.246;2023-04-03T03:37:33;3.60;99.90
55648;DHT22;45266;48.756;9.246;2023-04-03T03:38:35;3.60;99.90
55648;DHT22;45266;48.756;9.246;2023-04-03T03:39:36;3.60;99.90
55648;DHT22;45266;48.756;9.246;2023-04-03T03:40:38;3.70;99.90
55648;DHT22;45266;48.756;9.246;2023-04-03T03:41:40;3.70;99.90
55648;DHT22;45266;48.756;9.246;2023-04-03T03:42:42;3.70;99.90
55648;DHT22;45266;48.756;9.246;2023-04-03T03:43:44;3.70;99.90
55648;DHT22;45266;48.756;9.246;2023-04-03T03:44:46;3.70;99.90
55648;DHT22;45266;48.756;9.246;2023-04-03T03:45:51;3.70;99.90
55648;DHT22;45266;48.756;9.246;2023-04-03T03:46:53;3.70;99.90
55648;DHT22;45266;48.756;9.246;2023-04-03T03:47:56;3.70;99.90
55648;DHT22;45266;48.756;9.246;2023-04-03T03:48:58;3.80;99.90
55648;DHT22;45266;48.756;9.246;2023-04-03T03:50:00;3.70;99.90
55648;DHT22;45266;48.756;9.246;2023-04-03T03:51:02;3.80;99.90
55648;DHT22;45266;48.756;9.246;2023-04-03T03:52:04;3.80;99.90
55648;DHT22;45266;48.756;9.246;2023-04-03T03:53:06;3.80;99.90
55648;DHT22;45266;48.756;9.246;2023-04-03T03:54:09;3.80;99.90
55648;DHT22;45266;48.756;9.246;2023-04-03T03:55:11;3.80;99.90
55648;DHT22;45266;48.756;9.246;2023-04-03T03:56:13;3.70;99.90
55648;DHT22;45266;48.756;9.246;2023-04-03T03:57:15;3.70;99.90
55648;DHT22;45266;48.756;9.246;2023-04-03T03:58:17;3.80;99.90
55648;DHT22;45266;48.756;9.246;2023-04-03T03:59:18;3.70;99.90
55648;DHT22;45266;48.756;9.246;2023-04-03T04:00:20;3.80;99.90
55648;DHT22;45266;48.756;9.246;2023-04-03T04:01:23;3.80;99.90
55648;DHT22;45266;48.756;9.246;2023-04-03T04:02:25;3.80;99.90
55648;DHT22;45266;48.756;9.246;2023-04-03T04:03:27;3.80;99.90
55648;DHT22;45266;48.756;9.246;2023-04-03T04:04:29;3.80;99.90
55648;DHT22;45266;48.756;9.246;2023-04-03T04:05:31;3.80;99.90
55648;DHT22;45266;48.756;9.246;2023-04-03T04:06:33;3.80;99.90
55648;DHT22;45266;48.756;9.246;2023-04-03T04:07:35;3.80;99.90
55648;DHT22;45266;48.756;9.246;2023-04-03T04:08:37;3.80;99.90
55648;DHT22;45266;48.756;9.246;2023-04-03T04:09:38;3.80;99.90
55648;DHT22;45266;48.756;9.246;2023-04-03T04:10:40;3.80;99.90
55648;DHT22;45266;48.756;9.246;2023-04-03T04:11:42;3.80;99.90
55648;DHT22;45266;48.756;9.246;2023-04-03T04:12:44;3.80;99.90
55648;DHT22;45266;48.756;9.246;2023-04-03T04:13:45;3.80;99.90
55648;DHT22;45266;48.756;9.246;2023-04-03T04:14:47;3.80;99.90
55648;DHT22;45266;48.756;9.246;2023-04-03T04:15:49;3.80;99.90
55648;DHT22;45266;48.756;9.246;2023-04-03T04:16:51;3.80;99.90
55648;DHT22;45266;48.756;9.246;2023-04-03T04:17:53;3.80;99.90
55648;DHT22;45266;48.756;9.246;2023-04-03T04:18:55;3.80;99.90
55648;DHT22;45266;48.756;9.246;2023-04-03T04:19:56;3.80;99.90
55648;DHT22;45266;48.756;9.246;2023-04-03T04:20:58;3.80;99.90
55648;DHT22;45266;48.756;9.246;2023-04-03T04:22:00;3.80;99.90
55648;DHT22;45266;48.756;9.246;2023-04-03T04:23:02;3.80;99.90
55648;DHT22;45266;48.756;9.246;2023-04-03T04:24:04;3.80;99.90
55648;DHT22;45266;48.756;9.246;2023-04-03T04:25:07;3.80;99.90
55648;DHT22;45266;48.756;9.246;2023-04-03T04:26:09;3.80;99.90
55648;DHT22;45266;48.756;9.246;2023-04-03T04:27:11;3.80;99.90
55648;DHT22;45266;48.756;9.246;2023-04-03T04:28:13;3.80;99.90
55648;DHT22;45266;48.756;9.246;2023-04-03T04:29:15;3.80;99.90
55648;DHT22;45266;48.756;9.246;2023-04-03T04:30:17;3.80;99.90
55648;DHT22;45266;48.756;9.246;2023-04-03T04:31:18;3.80;99.90
55648;DHT22;45266;48.756;9.246;2023-04-03T04:32:20;3.80;99.90
55648;DHT22;45266;48.756;9.246;2023-04-03T04:33:22;3.90;99.90
55648;DHT22;45266;48.756;9.246;2023-04-03T04:34:24;3.80;99.90
55648;DHT22;45266;48.756;9.246;2023-04-03T04:35:26;3.90;99.90
55648;DHT22;45266;48.756;9.246;2023-04-03T04:36:28;3.90;99.50
55648;DHT22;45266;48.756;9.246;2023-04-03T04:37:29;3.90;99.90
55648;DHT22;45266;48.756;9.246;2023-04-03T04:38:31;3.90;99.90
55648;DHT22;45266;48.756;9.246;2023-04-03T04:39:33;4.00;99.90
55648;DHT22;45266;48.756;9.246;2023-04-03T04:40:35;3.80;99.90
55648;DHT22;45266;48.756;9.246;2023-04-03T04:41:39;3.90;99.90
55648;DHT22;45266;48.756;9.246;2023-04-03T04:42:40;3.80;99.90
55648;DHT22;45266;48.756;9.246;2023-04-03T04:43:42;3.80;99.90
55648;DHT22;45266;48.756;9.246;2023-04-03T04:44:44;3.80;99.90
55648;DHT22;45266;48.756;9.246;2023-04-03T04:45:46;3.80;99.90
55648;DHT22;45266;48.756;9.246;2023-04-03T04:46:48;3.80;99.90
55648;DHT22;45266;48.756;9.246;2023-04-03T04:47:50;3.80;99.90
55648;DHT22;45266;48.756;9.246;2023-04-03T04:48:53;3.80;99.90
55648;DHT22;45266;48.756;9.246;2023-04-03T04:49:55;3.80;99.90
55648;DHT22;45266;48.756;9.246;2023-04-03T04:50:57;3.80;99.90
55648;DHT22;45266;48.756;9.246;2023-04-03T04:51:59;3.70;99.90
55648;DHT22;45266;48.756;9.246;2023-04-03T04:53:01;3.80;99.90
55648;DHT22;45266;48.756;9.246;2023-04-03T04:54:03;3.80;99.90
55648;DHT22;45266;48.756;9.246;2023-04-03T04:55:05;3.80;99.90
55648;DHT22;45266;48.756;9.246;2023-04-03T04:56:07;3.80;99.90
55648;DHT22;45266;48.756;9.246;2023-04-03T04:57:09;3.80;99.90
55648;DHT22;45266;48.756;9.246;2023-04-03T04:58:11;3.80;99.90
55648;DHT22;45266;48.756;9.246;2023-04-03T04:59:13;3.80;99.90
55648;DHT22;45266;48.756;9.246;2023-04-03T05:00:15;3.80;99.90
55648;DHT22;45266;48.756;9.246;2023-04-03T05:01:17;3.80;99.70
55648;DHT22;45266;48.756;9.246;2023-04-03T05:02:20;3.80;99.60
55648;DHT22;45266;48.756;9.246;2023-04-03T05:03:21;3.80;98.90
55648;DHT22;45266;48.756;9.246;2023-04-03T05:04:23;3.80;99.90
55648;DHT22;45266;48.756;9.246;2023-04-03T05:05:25;3.80;94.90
55648;DHT22;45266;48.756;9.246;2023-04-03T05:06:27;3.80;97.40
55648;DHT22;45266;48.756;9.246;2023-04-03T05:07:29;3.70;97.60
55648;DHT22;45266;48.756;9.246;2023-04-03T05:08:31;3.80;98.00
55648;DHT22;45266;48.756;9.246;2023-04-03T05:09:32;3.80;95.70
55648;DHT22;45266;48.756;9.246;2023-04-03T05:10:34;3.80;95.80
55648;DHT22;45266;48.756;9.246;2023-04-03T05:11:36;3.90;95.10
55648;DHT22;45266;48.756;9.246;2023-04-03T05:12:38;3.80;98.70
55648;DHT22;45266;48.756;9.246;2023-04-03T05:13:40;3.80;99.60
55648;DHT22;45266;48.756;9.246;2023-04-03T05:14:41;3.80;96.60
55648;DHT22;45266;48.756;9.246;2023-04-03T05:15:43;3.80;99.80
55648;DHT22;45266;48.756;9.246;2023-04-03T05:16:45;3.80;96.60
55648;DHT22;45266;48.756;9.246;2023-04-03T05:17:47;3.80;98.40
55648;DHT22;45266;48.756;9.246;2023-04-03T05:18:49;3.80;98.20
55648;DHT22;45266;48.756;9.246;2023-04-03T05:19:51;3.80;93.50
55648;DHT22;45266;48.756;9.246;2023-04-03T05:20:53;3.80;95.00
55648;DHT22;45266;48.756;9.246;2023-04-03T05:21:54;3.80;95.50
55648;DHT22;45266;48.756;9.246;2023-04-03T05:22:56;3.80;93.50
55648;DHT22;45266;48.756;9.246;2023-04-03T05:23:59;3.80;96.40
55648;DHT22;45266;48.756;9.246;2023-04-03T05:25:04;3.80;96.20
55648;DHT22;45266;48.756;9.246;2023-04-03T05:26:07;3.80;99.20
55648;DHT22;45266;48.756;9.246;2023-04-03T05:27:08;3.90;94.40
55648;DHT22;45266;48.756;9.246;2023-04-03T05:28:10;3.80;97.40
55648;DHT22;45266;48.756;9.246;2023-04-03T05:29:12;3.80;93.20
55648;DHT22;45266;48.756;9.246;2023-04-03T05:30:14;3.80;97.10
55648;DHT22;45266;48.756;9.246;2023-04-03T05:31:16;3.90;93.50
55648;DHT22;45266;48.756;9.246;2023-04-03T05:32:18;3.90;93.80
55648;DHT22;45266;48.756;9.246;2023-04-03T05:33:20;4.00;95.10
55648;DHT22;45266;48.756;9.246;2023-04-03T05:34:21;3.90;93.20
55648;DHT22;45266;48.756;9.246;2023-04-03T05:35:23;3.90;92.30
55648;DHT22;45266;48.756;9.246;2023-04-03T05:36:25;4.00;92.00
55648;DHT22;45266;48.756;9.246;2023-04-03T05:37:27;4.00;92.50
55648;DHT22;45266;48.756;9.246;2023-04-03T05:38:29;4.00;91.60
55648;DHT22;45266;48.756;9.246;2023-04-03T05:39:32;4.00;93.40
55648;DHT22;45266;48.756;9.246;2023-04-03T05:40:34;4.00;91.40
55648;DHT22;45266;48.756;9.246;2023-04-03T05:41:35;4.00;92.80
55648;DHT22;45266;48.756;9.246;2023-04-03T05:42:37;4.00;94.80
55648;DHT22;45266;48.756;9.246;2023-04-03T05:43:39;4.10;95.60
55648;DHT22;45266;48.756;9.246;2023-04-03T05:44:41;4.10;94.60
55648;DHT22;45266;48.756;9.246;2023-04-03T05:45:43;4.00;96.00
55648;DHT22;45266;48.756;9.246;2023-04-03T05:46:47;4.00;95.10
55648;DHT22;45266;48.756;9.246;2023-04-03T05:47:49;4.00;94.20
55648;DHT22;45266;48.756;9.246;2023-04-03T05:48:51;4.00;93.20
55648;DHT22;45266;48.756;9.246;2023-04-03T05:49:53;4.00;95.90
55648;DHT22;45266;48.756;9.246;2023-04-03T05:50:55;4.10;93.20
55648;DHT22;45266;48.756;9.246;2023-04-03T05:51:57;4.00;94.70
55648;DHT22;45266;48.756;9.246;2023-04-03T05:53:00;4.00;95.00
55648;DHT22;45266;48.756;9.246;2023-04-03T05:54:12;4.00;96.50
55648;DHT22;45266;48.756;9.246;2023-04-03T05:55:15;4.00;93.10
55648;DHT22;45266;48.756;9.246;2023-04-03T05:56:17;4.00;94.30
55648;DHT22;45266;48.756;9.246;2023-04-03T05:57:19;4.00;93.90
55648;DHT22;45266;48.756;9.246;2023-04-03T05:58:21;4.00;94.70
55648;DHT22;45266;48.756;9.246;2023-04-03T05:59:23;4.10;93.90
55648;DHT22;45266;48.756;9.246;2023-04-03T06:00:25;4.00;95.90
55648;DHT22;45266;48.756;9.246;2023-04-03T06:01:27;4.00;96.50
55648;DHT22;45266;48.756;9.246;2023-04-03T06:02:29;4.00;98.70
55648;DHT22;45266;48.756;9.246;2023-04-03T06:03:32;4.00;98.20
55648;DHT22;45266;48.756;9.246;2023-04-03T06:04:35;4.00;95.60
55648;DHT22;45266;48.756;9.246;2023-04-03T06:05:38;4.00;95.90
55648;DHT22;45266;48.756;9.246;2023-04-03T06:06:51;3.90;94.20
55648;DHT22;45266;48.756;9.246;2023-04-03T06:07:53;4.00;96.30
55648;DHT22;45266;48.756;9.246;2023-04-03T06:08:55;4.00;99.80
55648;DHT22;45266;48.756;9.246;2023-04-03T06:09:57;4.00;99.90
55648;DHT22;45266;48.756;9.246;2023-04-03T06:10:59;4.00;99.90
55648;DHT22;45266;48.756;9.246;2023-04-03T06:12:01;4.00;99.90
55648;DHT22;45266;48.756;9.246;2023-04-03T06:13:03;4.00;99.90
55648;DHT22;45266;48.756;9.246;2023-04-03T06:14:05;4.00;99.90
55648;DHT22;45266;48.756;9.246;2023-04-03T06:15:07;4.10;99.90
55648;DHT22;45266;48.756;9.246;2023-04-03T06:16:12;4.10;99.90
55648;DHT22;45266;48.756;9.246;2023-04-03T06:17:16;4.10;99.90
55648;DHT22;45266;48.756;9.246;2023-04-03T06:18:19;4.10;98.60
55648;DHT22;45266;48.756;9.246;2023-04-03T06:19:22;4.10;99.90
55648;DHT22;45266;48.756;9.246;2023-04-03T06:20:24;4.10;95.70
55648;DHT22;45266;48.756;9.246;2023-04-03T06:21:26;4.10;97.10
55648;DHT22;45266;48.756;9.246;2023-04-03T06:22:28;4.10;96.40
55648;DHT22;45266;48.756;9.246;2023-04-03T06:23:31;4.10;99.90
55648;DHT22;45266;48.756;9.246;2023-04-03T06:24:34;4.10;96.20
55648;DHT22;45266;48.756;9.246;2023-04-03T06:25:37;4.00;94.50
55648;DHT22;45266;48.756;9.246;2023-04-03T06:26:39;4.00;94.80
55648;DHT22;45266;48.756;9.246;2023-04-03T06:27:40;4.00;94.50
55648;DHT22;45266;48.756;9.246;2023-04-03T06:28:42;4.00;94.80
55648;DHT22;45266;48.756;9.246;2023-04-03T06:29:44;4.00;93.40
55648;DHT22;45266;48.756;9.246;2023-04-03T06:30:46;4.00;96.80
55648;DHT22;45266;48.756;9.246;2023-04-03T06:31:50;4.10;97.60
55648;DHT22;45266;48.756;9.246;2023-04-03T06:32:51;4.00;91.80
55648;DHT22;45266;48.756;9.246;2023-04-03T06:33:53;4.00;94.20
55648;DHT22;45266;48.756;9.246;2023-04-03T06:34:55;4.00;97.40
55648;DHT22;45266;48.756;9.246;2023-04-03T06:35:58;4.00;95.70
55648;DHT22;45266;48.756;9.246;2023-04-03T06:37:00;4.00;95.70
55648;DHT22;45266;48.756;9.246;2023-04-03T06:38:02;4.00;98.70
55648;DHT22;45266;48.756;9.246;2023-04-03T06:39:14;4.00;98.20
55648;DHT22;45266;48.756;9.246;2023-04-03T06:40:21;4.00;95.40
55648;DHT22;45266;48.756;9.246;2023-04-03T06:41:23;4.10;95.10
55648;DHT22;45266;48.756;9.246;2023-04-03T06:42:25;4.00;95.60
55648;DHT22;45266;48.756;9.246;2023-04-03T06:43:27;4.10;98.10
55648;DHT22;45266;48.756;9.246;2023-04-03T06:44:29;4.00;94.40
55648;DHT22;45266;48.756;9.246;2023-04-03T06:45:30;4.10;96.20
55648;DHT22;45266;48.756;9.246;2023-04-03T06:46:32;4.10;99.90
55648;DHT22;45266;48.756;9.246;2023-04-03T06:47:34;4.00;99.50